createdAt,value
2023-02-02T00:02:00.128Z,7.10
2023-02-02T00:04:36.481Z,7.10
2023-02-02T00:07:05.175Z,7.20
2023-02-02T00:09:32.414Z,7.20
2023-02-02T00:12:00.533Z,7.20
2023-02-02T00:14:27.552Z,7.20
2023-02-02T00:16:55.755Z,7.20
2023-02-02T00:19:27.949Z,7.10
2023-02-02T00:21:55.086Z,7.10
2023-02-02T00:24:22.049Z,7.10
2023-02-02T00:26:54.669Z,7.10
2023-02-02T00:29:26.758Z,7.10
2023-02-02T00:31:53.715Z,7.10
2023-02-02T00:34:21.203Z,7.10
2023-02-02T00:36:48.671Z,7.00
2023-02-02T00:39:21.341Z,7.00
2023-02-02T00:41:48.471Z,7.00
2023-02-02T00:44:33.396Z,6.90
2023-02-02T00:47:00.030Z,6.90
2023-02-02T00:49:26.542Z,7.00
2023-02-02T00:51:53.068Z,6.90
2023-02-02T00:54:19.650Z,6.90
2023-02-02T00:56:46.208Z,7.00
2023-02-02T00:59:12.840Z,6.90
2023-02-02T01:01:39.628Z,6.90
2023-02-02T01:04:06.448Z,6.90
2023-02-02T01:06:33.036Z,6.90
2023-02-02T01:08:59.571Z,7.00
2023-02-02T01:11:26.111Z,6.90
2023-02-02T01:13:52.752Z,6.90
2023-02-02T01:16:22.204Z,6.90
2023-02-02T01:18:49.389Z,7.00
2023-02-02T01:21:15.945Z,7.00
2023-02-02T01:23:42.481Z,7.00
2023-02-02T01:26:11.025Z,7.00
2023-02-02T01:28:38.364Z,7.00
2023-02-02T01:31:13.692Z,7.00
2023-02-02T01:33:40.712Z,7.00
2023-02-02T01:36:11.713Z,7.00
2023-02-02T01:38:38.278Z,7.00
2023-02-02T01:41:05.092Z,6.90
2023-02-02T01:43:44.046Z,6.90
2023-02-02T01:46:12.615Z,6.90
2023-02-02T01:48:43.106Z,6.90
2023-02-02T01:51:19.365Z,6.90
2023-02-02T01:53:47.777Z,6.80
2023-02-02T01:56:19.463Z,6.80
2023-02-02T01:58:46.646Z,6.80
2023-02-02T02:01:14.710Z,6.80
2023-02-02T02:03:41.382Z,6.80
2023-02-02T02:06:12.693Z,6.80
2023-02-02T02:09:00.442Z,6.80
2023-02-02T02:11:27.398Z,6.80
2023-02-02T02:14:15.392Z,6.80
2023-02-02T02:17:02.757Z,6.90
2023-02-02T02:20:17.256Z,6.80
2023-02-02T02:23:24.009Z,6.90
2023-02-02T02:26:32.039Z,6.90
2023-02-02T02:29:25.135Z,6.90
2023-02-02T02:32:27.157Z,6.90
2023-02-02T02:35:20.382Z,6.90
2023-02-02T02:38:00.513Z,6.90
2023-02-02T02:40:30.245Z,6.90
2023-02-02T02:43:00.784Z,6.90
2023-02-02T02:45:28.736Z,6.90
2023-02-02T02:47:55.757Z,6.90
2023-02-02T02:50:22.720Z,6.90
2023-02-02T02:52:57.000Z,6.90
2023-02-02T02:55:25.307Z,6.80
2023-02-02T02:58:10.199Z,6.80
2023-02-02T03:00:48.426Z,6.80
2023-02-02T03:03:54.471Z,6.80
2023-02-02T03:06:47.432Z,6.70
2023-02-02T03:09:21.241Z,6.70
2023-02-02T03:11:47.804Z,6.70
2023-02-02T03:14:14.620Z,6.70
2023-02-02T03:16:41.315Z,6.70
2023-02-02T03:19:08.792Z,6.70
2023-02-02T03:21:35.396Z,6.70
2023-02-02T03:24:01.968Z,6.70
2023-02-02T03:26:28.866Z,6.70
2023-02-02T03:28:59.570Z,6.70
2023-02-02T03:31:27.373Z,6.70
2023-02-02T03:33:54.632Z,6.80
2023-02-02T03:36:21.704Z,6.70
2023-02-02T03:38:48.471Z,6.70
2023-02-02T03:41:15.130Z,6.70
2023-02-02T03:43:41.702Z,6.70
2023-02-02T03:46:08.410Z,6.70
2023-02-02T03:48:37.125Z,6.70
2023-02-02T03:51:09.310Z,6.70
2023-02-02T03:53:36.030Z,6.70
2023-02-02T03:56:02.605Z,6.70
2023-02-02T03:58:29.140Z,6.60
2023-02-02T04:01:03.550Z,6.60
2023-02-02T04:03:30.457Z,6.60
2023-02-02T04:05:57.025Z,6.60
2023-02-02T04:08:23.681Z,6.60
2023-02-02T04:10:50.241Z,6.60
2023-02-02T04:13:16.943Z,6.60
2023-02-02T04:15:43.525Z,6.60
2023-02-02T04:18:10.194Z,6.60
2023-02-02T04:20:36.784Z,6.60
2023-02-02T04:23:03.367Z,6.60
2023-02-02T04:25:29.966Z,6.70
2023-02-02T04:27:56.489Z,6.70
2023-02-02T04:30:23.083Z,6.70
2023-02-02T04:32:51.159Z,6.70
2023-02-02T04:35:17.776Z,6.70
2023-02-02T04:37:44.342Z,6.80
2023-02-02T04:40:11.697Z,6.80
2023-02-02T04:42:38.389Z,6.80
2023-02-02T04:45:05.472Z,6.80
2023-02-02T04:47:32.026Z,6.80
2023-02-02T04:49:59.076Z,6.80
2023-02-02T04:52:25.703Z,6.90
2023-02-02T04:54:52.205Z,6.90
2023-02-02T04:57:18.796Z,6.90
2023-02-02T04:59:45.427Z,6.90
2023-02-02T05:02:11.964Z,6.90
2023-02-02T05:04:38.496Z,7.00
2023-02-02T05:07:05.060Z,7.00
2023-02-02T05:09:31.589Z,7.00
2023-02-02T05:11:58.081Z,7.00
2023-02-02T05:14:24.587Z,7.00
2023-02-02T05:16:51.414Z,7.10
2023-02-02T05:19:17.982Z,7.10
2023-02-02T05:21:45.313Z,7.10
2023-02-02T05:24:12.398Z,7.10
2023-02-02T05:26:39.114Z,7.10
2023-02-02T05:29:06.710Z,7.20
2023-02-02T05:31:33.565Z,7.20
2023-02-02T05:34:00.375Z,7.20
2023-02-02T05:36:27.297Z,7.20
2023-02-02T05:38:53.842Z,7.10
2023-02-02T05:41:20.351Z,7.20
2023-02-02T05:43:46.937Z,7.20
2023-02-02T05:46:13.688Z,7.20
2023-02-02T05:48:40.264Z,7.20
2023-02-02T05:51:12.493Z,7.20
2023-02-02T05:53:39.027Z,7.20
2023-02-02T05:56:05.789Z,7.20
2023-02-02T05:58:32.336Z,7.20
2023-02-02T06:00:58.917Z,7.20
2023-02-02T06:03:25.544Z,7.20
2023-02-02T06:05:52.215Z,7.20
2023-02-02T06:08:18.995Z,7.20
2023-02-02T06:10:45.734Z,7.20
2023-02-02T06:13:12.335Z,7.20
2023-02-02T06:15:39.120Z,7.20
2023-02-02T06:18:06.967Z,7.20
2023-02-02T06:20:33.535Z,7.10
2023-02-02T06:23:00.224Z,7.10
2023-02-02T06:25:27.686Z,7.10
2023-02-02T06:28:01.166Z,7.10
2023-02-02T06:30:28.224Z,7.10
2023-02-02T06:32:54.901Z,7.10
2023-02-02T06:35:21.853Z,7.10
2023-02-02T06:37:49.112Z,7.10
2023-02-02T06:40:15.852Z,7.10
2023-02-02T06:42:42.439Z,7.10
2023-02-02T06:45:09.632Z,7.10
2023-02-02T06:47:36.173Z,7.10
2023-02-02T06:50:03.148Z,7.10
2023-02-02T06:52:29.742Z,7.10
2023-02-02T06:54:56.335Z,7.10
2023-02-02T06:57:23.031Z,7.10
2023-02-02T06:59:50.610Z,7.10
2023-02-02T07:02:17.140Z,7.10
2023-02-02T07:04:43.707Z,7.10
2023-02-02T07:07:10.314Z,7.10
2023-02-02T07:09:36.865Z,7.10
2023-02-02T07:12:03.531Z,7.20
2023-02-02T07:14:30.262Z,7.20
2023-02-02T07:16:56.852Z,7.20
2023-02-02T07:19:23.421Z,7.30
2023-02-02T07:21:50.051Z,7.30
2023-02-02T07:24:16.676Z,7.30
2023-02-02T07:26:43.209Z,7.30
2023-02-02T07:29:13.096Z,7.40
2023-02-02T07:31:40.175Z,7.40
2023-02-02T07:34:06.867Z,7.50
2023-02-02T07:36:33.714Z,7.40
2023-02-02T07:39:03.770Z,7.50
2023-02-02T07:41:32.487Z,7.50
2023-02-02T07:43:59.050Z,7.50
2023-02-02T07:46:25.772Z,7.50
2023-02-02T07:48:55.855Z,7.50
2023-02-02T07:51:23.206Z,7.50
2023-02-02T07:53:52.556Z,7.50
2023-02-02T07:56:20.295Z,7.40
2023-02-02T07:58:47.570Z,7.40
2023-02-02T08:01:16.364Z,7.30
2023-02-02T08:03:43.869Z,7.30
2023-02-02T08:06:21.327Z,7.40
2023-02-02T08:08:48.849Z,7.40
2023-02-02T08:11:18.333Z,7.40
2023-02-02T08:13:48.216Z,7.40
2023-02-02T08:16:14.863Z,7.40
2023-02-02T08:18:42.149Z,7.40
2023-02-02T08:21:10.339Z,7.40
2023-02-02T08:23:38.443Z,7.40
2023-02-02T08:26:13.798Z,7.50
2023-02-02T08:28:42.212Z,7.50
2023-02-02T08:31:15.933Z,7.60
2023-02-02T08:33:43.041Z,7.60
2023-02-02T08:36:15.202Z,7.60
2023-02-02T08:38:42.069Z,7.60
2023-02-02T08:41:10.959Z,7.60
2023-02-02T08:43:37.522Z,7.60
2023-02-02T08:46:05.868Z,7.60
2023-02-02T08:48:33.289Z,7.70
2023-02-02T08:51:00.000Z,7.70
2023-02-02T08:53:27.145Z,7.70
2023-02-02T08:56:06.620Z,7.70
2023-02-02T08:58:34.446Z,7.80
2023-02-02T09:01:06.915Z,7.80
2023-02-02T09:03:34.503Z,7.80
2023-02-02T09:06:08.609Z,7.80
2023-02-02T09:08:35.745Z,7.80
2023-02-02T09:11:12.355Z,7.80
2023-02-02T09:13:40.329Z,7.80
2023-02-02T09:16:09.692Z,7.90
2023-02-02T09:18:36.228Z,7.90
2023-02-02T09:21:05.743Z,7.80
2023-02-02T09:23:34.395Z,7.90
2023-02-02T09:26:28.137Z,7.80
2023-02-02T09:29:02.424Z,7.90
2023-02-02T09:31:31.001Z,7.80
2023-02-02T09:34:04.293Z,7.90
2023-02-02T09:36:31.500Z,7.80
2023-02-02T09:38:58.386Z,7.90
2023-02-02T09:41:37.010Z,7.90
2023-02-02T09:44:14.196Z,7.90
2023-02-02T09:47:07.236Z,7.90
2023-02-02T09:49:56.372Z,8.00
2023-02-02T09:52:43.867Z,8.00
2023-02-02T09:55:16.876Z,8.00
2023-02-02T09:57:48.635Z,8.00
2023-02-02T10:00:30.818Z,8.00
2023-02-02T10:03:03.850Z,7.90
2023-02-02T10:05:50.221Z,8.00
2023-02-02T10:08:34.637Z,8.00
2023-02-02T10:11:08.039Z,8.00
2023-02-02T10:13:43.370Z,8.00
2023-02-02T10:16:17.420Z,8.00
2023-02-02T10:19:03.557Z,8.00
2023-02-02T10:21:51.691Z,8.10
2023-02-02T10:24:25.478Z,8.00
2023-02-02T10:26:55.440Z,8.10
2023-02-02T10:29:22.061Z,8.10
2023-02-02T10:32:13.392Z,8.10
2023-02-02T10:35:18.271Z,8.10
2023-02-02T10:37:56.920Z,8.20
2023-02-02T10:40:54.701Z,8.20
2023-02-02T10:43:47.498Z,8.20
2023-02-02T10:46:23.607Z,8.30
2023-02-02T10:48:52.819Z,8.30
2023-02-02T10:51:29.357Z,8.30
2023-02-02T10:54:00.172Z,8.40
2023-02-02T10:56:36.271Z,8.40
2023-02-02T10:59:21.566Z,8.50
2023-02-02T11:01:48.661Z,8.50
2023-02-02T11:04:33.888Z,8.60
2023-02-02T11:07:01.679Z,8.60
2023-02-02T11:09:32.581Z,8.60
2023-02-02T11:12:13.838Z,8.60
2023-02-02T11:15:08.601Z,8.70
2023-02-02T11:17:35.844Z,8.70
2023-02-02T11:20:31.263Z,8.70
2023-02-02T11:23:04.073Z,8.70
2023-02-02T11:25:38.043Z,8.70
2023-02-02T11:28:20.210Z,8.60
2023-02-02T11:30:50.371Z,8.50
2023-02-02T11:33:36.718Z,8.50
2023-02-02T11:36:06.493Z,8.50
2023-02-02T11:38:33.257Z,8.40
2023-02-02T11:41:07.110Z,8.40
2023-02-02T11:43:41.178Z,8.40
2023-02-02T11:46:29.114Z,8.30
2023-02-02T11:49:01.704Z,8.30
2023-02-02T11:51:30.381Z,8.30
2023-02-02T11:54:16.019Z,8.30
2023-02-02T11:56:48.466Z,8.20
2023-02-02T11:59:37.539Z,8.20
2023-02-02T12:02:27.685Z,8.20
2023-02-02T12:05:15.605Z,8.20
2023-02-02T12:07:43.313Z,8.30
2023-02-02T12:10:35.030Z,8.30
2023-02-02T12:13:23.130Z,8.40
2023-02-02T12:16:08.791Z,8.40
2023-02-02T12:18:49.895Z,8.40
2023-02-02T12:21:53.650Z,8.50
2023-02-02T12:24:22.976Z,8.60
2023-02-02T12:26:54.607Z,8.60
2023-02-02T12:29:27.031Z,8.70
2023-02-02T12:32:14.329Z,8.60
2023-02-02T12:34:51.861Z,8.70
2023-02-02T12:37:18.699Z,8.70
2023-02-02T12:40:03.369Z,8.70
2023-02-02T12:42:48.111Z,8.70
2023-02-02T12:45:37.192Z,8.60
2023-02-02T12:48:24.161Z,8.60
2023-02-02T12:50:58.771Z,8.50
2023-02-02T12:54:33.744Z,8.50
2023-02-02T12:57:20.806Z,8.50
2023-02-02T13:00:07.657Z,8.50
2023-02-02T13:02:53.504Z,8.50
2023-02-02T13:05:55.029Z,8.60
2023-02-02T13:08:28.024Z,8.60
2023-02-02T13:11:29.720Z,8.70
2023-02-02T13:14:16.704Z,8.70
2023-02-02T13:16:52.944Z,8.70
2023-02-02T13:19:44.570Z,8.70
2023-02-02T13:22:19.863Z,8.70
2023-02-02T13:24:50.893Z,8.70
2023-02-02T13:27:20.865Z,8.70
2023-02-02T13:30:10.876Z,8.80
2023-02-02T13:32:41.587Z,8.80
2023-02-02T13:35:18.906Z,8.80
2023-02-02T13:38:04.952Z,8.80
2023-02-02T13:40:41.496Z,8.90
2023-02-02T13:43:20.983Z,8.90
2023-02-02T13:45:59.436Z,8.90
2023-02-02T13:48:47.683Z,8.90
2023-02-02T13:51:44.277Z,8.90
2023-02-02T13:54:19.530Z,8.90
2023-02-02T13:57:18.710Z,8.90
2023-02-02T13:59:45.619Z,9.00
2023-02-02T14:02:29.916Z,9.10
2023-02-02T14:04:59.899Z,9.10
2023-02-02T14:07:34.181Z,9.10
2023-02-02T14:10:00.818Z,9.00
2023-02-02T14:12:31.552Z,9.00
2023-02-02T14:14:59.006Z,9.00
2023-02-02T14:17:25.505Z,9.10
2023-02-02T14:19:55.396Z,9.10
2023-02-02T14:22:48.131Z,9.10
2023-02-02T14:25:30.082Z,9.10
2023-02-02T14:28:02.218Z,9.20
2023-02-02T14:30:32.857Z,9.20
2023-02-02T14:33:21.326Z,9.30
2023-02-02T14:35:47.793Z,9.30
2023-02-02T14:38:26.695Z,9.30
2023-02-02T14:40:53.338Z,9.30
2023-02-02T14:43:45.617Z,9.30
2023-02-02T14:46:15.138Z,9.40
2023-02-02T14:49:06.983Z,9.50
2023-02-02T14:51:45.926Z,9.50
2023-02-02T14:54:21.840Z,9.40
2023-02-02T14:56:52.862Z,9.40
2023-02-02T14:59:24.522Z,9.40
2023-02-02T15:02:15.196Z,9.20
2023-02-02T15:04:42.491Z,9.10
2023-02-02T15:07:24.054Z,9.10
2023-02-02T15:09:56.300Z,9.00
2023-02-02T15:12:44.821Z,8.90
2023-02-02T15:15:23.116Z,8.90
2023-02-02T15:18:12.540Z,8.90
2023-02-02T15:20:45.329Z,8.90
2023-02-02T15:23:31.766Z,8.90
2023-02-02T15:26:25.687Z,8.90
2023-02-02T15:28:59.509Z,8.90
2023-02-02T15:31:37.628Z,9.00
2023-02-02T15:34:17.215Z,9.00
2023-02-02T15:36:46.424Z,9.00
2023-02-02T15:39:26.097Z,8.90
2023-02-02T15:42:16.884Z,8.90
2023-02-02T15:44:43.644Z,8.80
2023-02-02T15:47:18.454Z,8.80
2023-02-02T15:49:46.036Z,8.80
2023-02-02T15:52:26.976Z,8.80
2023-02-02T15:54:59.593Z,8.90
2023-02-02T15:57:33.423Z,8.90
2023-02-02T16:00:16.479Z,8.90
2023-02-02T16:02:45.514Z,8.90
2023-02-02T16:05:31.743Z,8.90
2023-02-02T16:08:05.912Z,9.00
2023-02-02T16:10:34.317Z,9.00
2023-02-02T16:13:01.585Z,9.00
2023-02-02T16:15:30.754Z,9.00
2023-02-02T16:18:05.402Z,9.00
2023-02-02T16:20:35.400Z,9.00
2023-02-02T16:23:06.067Z,9.00
2023-02-02T16:25:44.458Z,9.00
2023-02-02T16:28:14.810Z,9.00
2023-02-02T16:30:42.064Z,9.00
2023-02-02T16:33:29.161Z,9.00
2023-02-02T16:35:56.549Z,8.90
2023-02-02T16:38:26.473Z,8.90
2023-02-02T16:41:06.727Z,8.90
2023-02-02T16:43:34.493Z,8.90
2023-02-02T16:46:04.666Z,8.80
2023-02-02T16:48:36.938Z,8.80
2023-02-02T16:51:17.525Z,8.80
2023-02-02T16:53:46.927Z,8.80
2023-02-02T16:56:29.300Z,8.80
2023-02-02T16:58:58.007Z,8.80
2023-02-02T17:01:41.808Z,8.80
2023-02-02T17:04:18.428Z,8.80
2023-02-02T17:06:52.465Z,8.80
2023-02-02T17:09:54.499Z,8.80
2023-02-02T17:12:33.639Z,8.80
2023-02-02T17:15:20.914Z,8.80
2023-02-02T17:17:48.940Z,8.90
2023-02-02T17:20:17.049Z,8.80
2023-02-02T17:22:48.183Z,8.90
2023-02-02T17:25:17.910Z,8.90
2023-02-02T17:27:45.393Z,8.90
2023-02-02T17:30:17.588Z,8.90
2023-02-02T17:32:44.190Z,9.00
2023-02-02T17:35:15.676Z,8.90
2023-02-02T17:37:43.092Z,8.90
2023-02-02T17:40:14.794Z,9.00
2023-02-02T17:42:42.985Z,9.00
2023-02-02T17:45:17.897Z,9.00
2023-02-02T17:47:44.487Z,9.00
2023-02-02T17:50:11.691Z,9.00
2023-02-02T17:52:39.004Z,8.90
2023-02-02T17:55:22.796Z,8.90
2023-02-02T17:57:50.729Z,9.00
2023-02-02T18:00:19.573Z,9.00
2023-02-02T18:02:48.495Z,9.00
2023-02-02T18:05:16.312Z,8.90
2023-02-02T18:07:43.665Z,8.90
2023-02-02T18:10:12.765Z,8.90
2023-02-02T18:12:39.590Z,8.90
2023-02-02T18:15:08.357Z,8.90
2023-02-02T18:17:35.300Z,8.90
2023-02-02T18:20:01.951Z,8.90
2023-02-02T18:22:29.539Z,8.90
2023-02-02T18:24:56.138Z,8.90
2023-02-02T18:27:22.685Z,8.90
2023-02-02T18:29:49.190Z,8.80
2023-02-02T18:32:17.638Z,8.80
2023-02-02T18:34:45.803Z,8.90
2023-02-02T18:37:12.306Z,8.80
2023-02-02T18:39:38.896Z,8.90
2023-02-02T18:42:05.651Z,8.80
2023-02-02T18:44:34.512Z,8.80
2023-02-02T18:47:01.013Z,8.80
2023-02-02T18:49:27.895Z,8.80
2023-02-02T18:51:54.618Z,8.80
2023-02-02T18:54:22.221Z,8.80
2023-02-02T18:56:48.842Z,8.80
2023-02-02T18:59:15.636Z,8.80
2023-02-02T19:01:42.305Z,8.80
2023-02-02T19:04:08.975Z,8.80
2023-02-02T19:06:54.540Z,8.80
2023-02-02T19:09:22.173Z,8.80
2023-02-02T19:11:50.778Z,8.80
2023-02-02T19:14:20.231Z,8.80
2023-02-02T19:16:48.340Z,8.80
2023-02-02T19:19:30.312Z,8.80
2023-02-02T19:21:58.642Z,8.70
2023-02-02T19:24:27.292Z,8.70
2023-02-02T19:26:53.998Z,8.60
2023-02-02T19:29:23.169Z,8.60
2023-02-02T19:31:58.481Z,8.70
2023-02-02T19:34:25.347Z,8.60
2023-02-02T19:36:52.256Z,8.60
2023-02-02T19:39:21.448Z,8.60
2023-02-02T19:41:48.232Z,8.60
2023-02-02T19:44:18.272Z,8.60
2023-02-02T19:46:48.835Z,8.60
2023-02-02T19:49:32.750Z,8.60
2023-02-02T19:52:01.103Z,8.60
2023-02-02T19:54:29.573Z,8.60
2023-02-02T19:57:11.036Z,8.60
2023-02-02T19:59:37.652Z,8.60
2023-02-02T20:02:37.476Z,8.60
2023-02-02T20:05:17.294Z,8.50
2023-02-02T20:07:44.051Z,8.50
2023-02-02T20:10:16.405Z,8.50
2023-02-02T20:12:43.046Z,8.50
2023-02-02T20:15:50.001Z,8.40
2023-02-02T20:18:44.739Z,8.40
2023-02-02T20:21:33.645Z,8.40
2023-02-02T20:24:00.454Z,8.40
2023-02-02T20:26:33.119Z,8.50
2023-02-02T20:29:12.738Z,8.50
2023-02-02T20:31:39.527Z,8.50
2023-02-02T20:34:22.416Z,8.50
2023-02-02T20:36:50.706Z,8.50
2023-02-02T20:39:39.936Z,8.50
2023-02-02T20:42:06.412Z,8.40
2023-02-02T20:44:34.686Z,8.40
2023-02-02T20:47:02.146Z,8.40
2023-02-02T20:49:31.569Z,8.30
2023-02-02T20:52:00.349Z,8.30
2023-02-02T20:54:27.440Z,8.30
2023-02-02T20:56:54.361Z,8.30
2023-02-02T20:59:21.013Z,8.30
2023-02-02T21:01:49.714Z,8.30
2023-02-02T21:04:17.571Z,8.30
2023-02-02T21:06:44.182Z,8.30
2023-02-02T21:09:11.539Z,8.30
2023-02-02T21:11:38.697Z,8.30
2023-02-02T21:14:05.779Z,8.30
2023-02-02T21:16:32.729Z,8.30
2023-02-02T21:18:59.341Z,8.20
2023-02-02T21:21:25.981Z,8.30
2023-02-02T21:23:53.433Z,8.20
2023-02-02T21:26:23.241Z,8.20
2023-02-02T21:28:50.092Z,8.20
2023-02-02T21:31:17.769Z,8.20
2023-02-02T21:33:46.296Z,8.20
2023-02-02T21:36:33.876Z,8.20
2023-02-02T21:39:21.728Z,8.20
2023-02-02T21:41:50.426Z,8.20
2023-02-02T21:44:22.198Z,8.10
2023-02-02T21:46:51.456Z,8.10
2023-02-02T21:49:25.287Z,8.10
2023-02-02T21:51:55.357Z,8.10
2023-02-02T21:54:23.523Z,8.10
2023-02-02T21:56:51.132Z,8.10
2023-02-02T21:59:28.538Z,8.10
2023-02-02T22:01:55.222Z,8.10
2023-02-02T22:04:29.064Z,8.10
2023-02-02T22:06:58.786Z,8.10
2023-02-02T22:09:38.377Z,8.10
2023-02-02T22:12:21.473Z,8.10
2023-02-02T22:14:50.857Z,8.00
2023-02-02T22:17:24.434Z,8.10
2023-02-02T22:20:07.583Z,8.10
2023-02-02T22:22:36.140Z,8.10
2023-02-02T22:25:20.858Z,8.10
2023-02-02T22:27:54.310Z,8.00
2023-02-02T22:30:30.438Z,8.10
2023-02-02T22:32:57.092Z,8.10
2023-02-02T22:35:23.964Z,8.00
2023-02-02T22:37:51.469Z,8.00
2023-02-02T22:40:22.221Z,8.00
2023-02-02T22:42:53.721Z,8.10
2023-02-02T22:45:20.603Z,8.10
2023-02-02T22:47:48.098Z,8.10
2023-02-02T22:50:16.093Z,8.10
2023-02-02T22:52:43.104Z,8.10
2023-02-02T22:55:10.971Z,8.10
2023-02-02T22:57:37.685Z,8.10
2023-02-02T23:00:10.293Z,8.10
2023-02-02T23:02:36.840Z,8.10
2023-02-02T23:05:03.858Z,8.00
2023-02-02T23:07:30.364Z,8.00
2023-02-02T23:09:56.979Z,7.90
2023-02-02T23:12:23.467Z,8.00
2023-02-02T23:14:50.072Z,7.90
2023-02-02T23:17:16.676Z,8.00
2023-02-02T23:19:43.333Z,7.90
2023-02-02T23:22:09.885Z,7.90
2023-02-02T23:24:36.489Z,7.90
2023-02-02T23:27:03.028Z,7.90
2023-02-02T23:29:29.546Z,7.90
2023-02-02T23:31:56.109Z,7.90
2023-02-02T23:34:22.669Z,7.80
2023-02-02T23:36:49.314Z,7.80
2023-02-02T23:39:15.838Z,7.80
2023-02-02T23:41:42.375Z,7.80
2023-02-02T23:44:08.879Z,7.80
2023-02-02T23:46:37.033Z,7.80
2023-02-02T23:49:03.810Z,7.70
2023-02-02T23:51:30.738Z,7.70
2023-02-02T23:53:58.186Z,7.80
2023-02-02T23:56:25.232Z,7.80
2023-02-02T23:58:51.888Z,7.80
